sensor_id;sensor_type;location;lat;lon;timestamp;P1;durP1;ratioP1;P2;durP2;ratioP2
28447;SDS011;15675;52.870;-1.416;2023-06-26T00:01:26;6.65;;;1.05;;
28447;SDS011;15675;52.870;-1.416;2023-06-26T00:03:55;4.20;;;1.02;;
28447;SDS011;15675;52.870;-1.416;2023-06-26T00:06:21;6.15;;;1.20;;
28447;SDS011;15675;52.870;-1.416;2023-06-26T00:08:50;4.97;;;1.30;;
28447;SDS011;15675;52.870;-1.416;2023-06-26T00:11:15;4.70;;;1.35;;
28447;SDS011;15675;52.870;-1.416;2023-06-26T00:13:41;7.32;;;1.73;;
28447;SDS011;15675;52.870;-1.416;2023-06-26T00:16:07;7.65;;;1.55;;
28447;SDS011;15675;52.870;-1.416;2023-06-26T00:18:32;7.35;;;1.13;;
28447;SDS011;15675;52.870;-1.416;2023-06-26T00:20:58;7.88;;;1.50;;
28447;SDS011;15675;52.870;-1.416;2023-06-26T00:23:23;7.43;;;1.63;;
28447;SDS011;15675;52.870;-1.416;2023-06-26T00:25:48;4.30;;;1.33;;
28447;SDS011;15675;52.870;-1.416;2023-06-26T00:28:14;4.70;;;1.27;;
28447;SDS011;15675;52.870;-1.416;2023-06-26T00:30:39;5.00;;;1.63;;
28447;SDS011;15675;52.870;-1.416;2023-06-26T00:33:05;5.22;;;1.38;;
28447;SDS011;15675;52.870;-1.416;2023-06-26T00:35:31;4.35;;;1.45;;
28447;SDS011;15675;52.870;-1.416;2023-06-26T00:37:56;5.38;;;1.50;;
28447;SDS011;15675;52.870;-1.416;2023-06-26T00:40:22;3.50;;;1.25;;
28447;SDS011;15675;52.870;-1.416;2023-06-26T00:42:47;3.17;;;1.13;;
28447;SDS011;15675;52.870;-1.416;2023-06-26T00:45:13;5.55;;;1.52;;
28447;SDS011;15675;52.870;-1.416;2023-06-26T00:47:38;6.20;;;1.23;;
28447;SDS011;15675;52.870;-1.416;2023-06-26T00:50:04;2.65;;;1.45;;
28447;SDS011;15675;52.870;-1.416;2023-06-26T00:52:31;4.00;;;1.23;;
28447;SDS011;15675;52.870;-1.416;2023-06-26T00:54:57;5.25;;;1.60;;
28447;SDS011;15675;52.870;-1.416;2023-06-26T00:57:23;7.05;;;1.67;;
28447;SDS011;15675;52.870;-1.416;2023-06-26T00:59:49;5.50;;;1.42;;
28447;SDS011;15675;52.870;-1.416;2023-06-26T01:02:15;5.53;;;1.55;;
28447;SDS011;15675;52.870;-1.416;2023-06-26T01:04:49;5.60;;;1.50;;
28447;SDS011;15675;52.870;-1.416;2023-06-26T01:07:16;4.90;;;1.55;;
28447;SDS011;15675;52.870;-1.416;2023-06-26T01:09:47;4.95;;;1.10;;
28447;SDS011;15675;52.870;-1.416;2023-06-26T01:12:14;3.50;;;1.45;;
28447;SDS011;15675;52.870;-1.416;2023-06-26T01:14:39;3.92;;;1.58;;
28447;SDS011;15675;52.870;-1.416;2023-06-26T01:17:05;13.73;;;2.67;;
28447;SDS011;15675;52.870;-1.416;2023-06-26T01:19:32;5.05;;;1.67;;
28447;SDS011;15675;52.870;-1.416;2023-06-26T01:22:10;3.08;;;1.50;;
28447;SDS011;15675;52.870;-1.416;2023-06-26T01:24:41;7.65;;;1.60;;
28447;SDS011;15675;52.870;-1.416;2023-06-26T01:27:27;6.90;;;1.92;;
28447;SDS011;15675;52.870;-1.416;2023-06-26T01:29:57;5.93;;;1.35;;
28447;SDS011;15675;52.870;-1.416;2023-06-26T01:32:27;4.78;;;1.70;;
28447;SDS011;15675;52.870;-1.416;2023-06-26T01:34:54;6.47;;;1.58;;
28447;SDS011;15675;52.870;-1.416;2023-06-26T01:37:19;8.52;;;2.00;;
28447;SDS011;15675;52.870;-1.416;2023-06-26T01:39:45;8.10;;;1.92;;
28447;SDS011;15675;52.870;-1.416;2023-06-26T01:42:10;6.47;;;1.90;;
28447;SDS011;15675;52.870;-1.416;2023-06-26T01:44:37;5.32;;;1.58;;
28447;SDS011;15675;52.870;-1.416;2023-06-26T01:47:09;7.68;;;1.85;;
28447;SDS011;15675;52.870;-1.416;2023-06-26T01:52:43;4.93;;;1.75;;
28447;SDS011;15675;52.870;-1.416;2023-06-26T01:55:16;7.22;;;1.63;;
28447;SDS011;15675;52.870;-1.416;2023-06-26T01:57:47;7.80;;;2.00;;
28447;SDS011;15675;52.870;-1.416;2023-06-26T02:00:14;5.70;;;1.92;;
28447;SDS011;15675;52.870;-1.416;2023-06-26T02:02:43;8.93;;;1.65;;
28447;SDS011;15675;52.870;-1.416;2023-06-26T02:05:09;6.25;;;2.10;;
28447;SDS011;15675;52.870;-1.416;2023-06-26T02:07:35;9.60;;;2.05;;
28447;SDS011;15675;52.870;-1.416;2023-06-26T02:10:01;5.60;;;1.80;;
28447;SDS011;15675;52.870;-1.416;2023-06-26T02:12:27;4.57;;;1.48;;
28447;SDS011;15675;52.870;-1.416;2023-06-26T02:14:53;7.55;;;1.55;;
28447;SDS011;15675;52.870;-1.416;2023-06-26T02:17:18;7.10;;;2.05;;
28447;SDS011;15675;52.870;-1.416;2023-06-26T02:19:44;5.70;;;2.20;;
28447;SDS011;15675;52.870;-1.416;2023-06-26T02:22:13;7.63;;;1.90;;
28447;SDS011;15675;52.870;-1.416;2023-06-26T02:24:40;7.82;;;2.20;;
28447;SDS011;15675;52.870;-1.416;2023-06-26T02:27:06;5.18;;;1.80;;
28447;SDS011;15675;52.870;-1.416;2023-06-26T02:29:31;7.10;;;2.47;;
28447;SDS011;15675;52.870;-1.416;2023-06-26T02:31:57;5.20;;;2.13;;
28447;SDS011;15675;52.870;-1.416;2023-06-26T02:34:22;8.80;;;1.90;;
28447;SDS011;15675;52.870;-1.416;2023-06-26T02:36:48;7.07;;;2.33;;
28447;SDS011;15675;52.870;-1.416;2023-06-26T02:39:13;9.45;;;2.17;;
28447;SDS011;15675;52.870;-1.416;2023-06-26T02:41:39;6.60;;;2.28;;
28447;SDS011;15675;52.870;-1.416;2023-06-26T02:44:05;18.02;;;1.98;;
28447;SDS011;15675;52.870;-1.416;2023-06-26T02:46:32;7.93;;;2.53;;
28447;SDS011;15675;52.870;-1.416;2023-06-26T02:48:58;5.47;;;1.92;;
28447;SDS011;15675;52.870;-1.416;2023-06-26T02:51:24;12.88;;;2.28;;
28447;SDS011;15675;52.870;-1.416;2023-06-26T02:53:50;7.38;;;2.13;;
28447;SDS011;15675;52.870;-1.416;2023-06-26T02:56:15;9.48;;;2.00;;
28447;SDS011;15675;52.870;-1.416;2023-06-26T02:58:41;5.80;;;2.13;;
28447;SDS011;15675;52.870;-1.416;2023-06-26T03:01:06;8.05;;;2.10;;
28447;SDS011;15675;52.870;-1.416;2023-06-26T03:03:32;7.22;;;2.08;;
28447;SDS011;15675;52.870;-1.416;2023-06-26T03:06:08;9.05;;;2.03;;
28447;SDS011;15675;52.870;-1.416;2023-06-26T03:08:36;3.58;;;1.67;;
28447;SDS011;15675;52.870;-1.416;2023-06-26T03:11:02;8.52;;;2.38;;
28447;SDS011;15675;52.870;-1.416;2023-06-26T03:13:27;5.13;;;1.92;;
28447;SDS011;15675;52.870;-1.416;2023-06-26T03:15:53;6.95;;;1.90;;
28447;SDS011;15675;52.870;-1.416;2023-06-26T03:18:18;9.63;;;2.50;;
28447;SDS011;15675;52.870;-1.416;2023-06-26T03:20:44;6.25;;;2.10;;
28447;SDS011;15675;52.870;-1.416;2023-06-26T03:23:09;3.67;;;1.98;;
28447;SDS011;15675;52.870;-1.416;2023-06-26T03:25:35;8.48;;;2.33;;
28447;SDS011;15675;52.870;-1.416;2023-06-26T03:28:00;7.32;;;2.55;;
28447;SDS011;15675;52.870;-1.416;2023-06-26T03:30:26;5.35;;;2.13;;
28447;SDS011;15675;52.870;-1.416;2023-06-26T03:32:51;6.38;;;2.30;;
28447;SDS011;15675;52.870;-1.416;2023-06-26T03:35:17;8.75;;;2.45;;
28447;SDS011;15675;52.870;-1.416;2023-06-26T03:37:43;3.88;;;2.17;;
28447;SDS011;15675;52.870;-1.416;2023-06-26T03:40:08;13.35;;;2.70;;
28447;SDS011;15675;52.870;-1.416;2023-06-26T03:42:35;9.18;;;2.42;;
28447;SDS011;15675;52.870;-1.416;2023-06-26T03:45:00;9.57;;;2.42;;
28447;SDS011;15675;52.870;-1.416;2023-06-26T03:47:26;12.88;;;2.50;;
28447;SDS011;15675;52.870;-1.416;2023-06-26T03:49:51;14.02;;;3.22;;
28447;SDS011;15675;52.870;-1.416;2023-06-26T03:52:17;5.38;;;2.50;;
28447;SDS011;15675;52.870;-1.416;2023-06-26T03:54:42;9.45;;;2.30;;
28447;SDS011;15675;52.870;-1.416;2023-06-26T03:57:08;6.72;;;2.40;;
28447;SDS011;15675;52.870;-1.416;2023-06-26T03:59:34;11.10;;;2.60;;
28447;SDS011;15675;52.870;-1.416;2023-06-26T04:01:59;6.78;;;2.30;;
28447;SDS011;15675;52.870;-1.416;2023-06-26T04:04:25;6.40;;;3.25;;
28447;SDS011;15675;52.870;-1.416;2023-06-26T04:06:50;7.20;;;2.60;;
28447;SDS011;15675;52.870;-1.416;2023-06-26T04:09:16;9.35;;;2.53;;
28447;SDS011;15675;52.870;-1.416;2023-06-26T04:11:42;7.93;;;2.08;;
28447;SDS011;15675;52.870;-1.416;2023-06-26T04:14:07;8.55;;;2.38;;
28447;SDS011;15675;52.870;-1.416;2023-06-26T04:16:33;5.97;;;2.05;;
28447;SDS011;15675;52.870;-1.416;2023-06-26T04:18:58;9.38;;;2.53;;
28447;SDS011;15675;52.870;-1.416;2023-06-26T04:21:24;8.05;;;2.30;;
28447;SDS011;15675;52.870;-1.416;2023-06-26T04:23:50;11.82;;;2.30;;
28447;SDS011;15675;52.870;-1.416;2023-06-26T04:26:16;6.95;;;2.47;;
28447;SDS011;15675;52.870;-1.416;2023-06-26T04:28:41;8.85;;;2.40;;
28447;SDS011;15675;52.870;-1.416;2023-06-26T04:31:07;6.95;;;2.92;;
28447;SDS011;15675;52.870;-1.416;2023-06-26T04:33:34;7.15;;;2.47;;
28447;SDS011;15675;52.870;-1.416;2023-06-26T04:36:01;7.60;;;2.30;;
28447;SDS011;15675;52.870;-1.416;2023-06-26T04:38:28;8.25;;;2.35;;
28447;SDS011;15675;52.870;-1.416;2023-06-26T04:40:54;10.18;;;1.98;;
28447;SDS011;15675;52.870;-1.416;2023-06-26T04:43:20;11.60;;;3.10;;
28447;SDS011;15675;52.870;-1.416;2023-06-26T04:45:45;7.63;;;2.55;;
28447;SDS011;15675;52.870;-1.416;2023-06-26T04:48:11;6.00;;;1.88;;
28447;SDS011;15675;52.870;-1.416;2023-06-26T04:50:36;6.35;;;2.25;;
28447;SDS011;15675;52.870;-1.416;2023-06-26T04:53:02;7.57;;;1.90;;
28447;SDS011;15675;52.870;-1.416;2023-06-26T04:55:27;11.70;;;2.30;;
28447;SDS011;15675;52.870;-1.416;2023-06-26T04:57:53;7.72;;;2.30;;
28447;SDS011;15675;52.870;-1.416;2023-06-26T05:00:19;11.23;;;2.10;;
28447;SDS011;15675;52.870;-1.416;2023-06-26T05:02:45;7.82;;;2.50;;
28447;SDS011;15675;52.870;-1.416;2023-06-26T05:05:10;7.78;;;1.90;;
28447;SDS011;15675;52.870;-1.416;2023-06-26T05:07:37;6.13;;;2.55;;
28447;SDS011;15675;52.870;-1.416;2023-06-26T05:10:03;5.22;;;2.10;;
28447;SDS011;15675;52.870;-1.416;2023-06-26T05:12:29;10.55;;;2.00;;
28447;SDS011;15675;52.870;-1.416;2023-06-26T05:14:54;4.75;;;1.90;;
28447;SDS011;15675;52.870;-1.416;2023-06-26T05:17:20;2.63;;;1.75;;
28447;SDS011;15675;52.870;-1.416;2023-06-26T05:19:45;11.18;;;2.60;;
28447;SDS011;15675;52.870;-1.416;2023-06-26T05:22:12;6.50;;;2.08;;
28447;SDS011;15675;52.870;-1.416;2023-06-26T05:24:39;7.82;;;2.30;;
28447;SDS011;15675;52.870;-1.416;2023-06-26T05:27:05;4.88;;;1.80;;
28447;SDS011;15675;52.870;-1.416;2023-06-26T05:29:31;6.55;;;1.73;;
28447;SDS011;15675;52.870;-1.416;2023-06-26T05:31:58;4.70;;;1.83;;
28447;SDS011;15675;52.870;-1.416;2023-06-26T05:34:24;11.15;;;2.70;;
28447;SDS011;15675;52.870;-1.416;2023-06-26T05:36:55;8.50;;;2.35;;
28447;SDS011;15675;52.870;-1.416;2023-06-26T05:39:23;5.75;;;2.20;;
28447;SDS011;15675;52.870;-1.416;2023-06-26T05:41:49;4.68;;;2.10;;
28447;SDS011;15675;52.870;-1.416;2023-06-26T05:44:15;9.70;;;2.20;;
28447;SDS011;15675;52.870;-1.416;2023-06-26T05:46:41;8.98;;;2.17;;
28447;SDS011;15675;52.870;-1.416;2023-06-26T05:49:07;7.28;;;2.20;;
28447;SDS011;15675;52.870;-1.416;2023-06-26T05:51:33;5.10;;;1.83;;
28447;SDS011;15675;52.870;-1.416;2023-06-26T05:53:59;9.50;;;2.42;;
28447;SDS011;15675;52.870;-1.416;2023-06-26T05:56:25;8.40;;;2.13;;
28447;SDS011;15675;52.870;-1.416;2023-06-26T05:58:51;9.82;;;2.60;;
28447;SDS011;15675;52.870;-1.416;2023-06-26T06:01:18;7.05;;;2.10;;
28447;SDS011;15675;52.870;-1.416;2023-06-26T06:03:44;6.72;;;1.80;;
28447;SDS011;15675;52.870;-1.416;2023-06-26T06:06:10;5.32;;;1.80;;
28447;SDS011;15675;52.870;-1.416;2023-06-26T06:08:36;6.28;;;1.60;;
28447;SDS011;15675;52.870;-1.416;2023-06-26T06:11:02;6.45;;;2.00;;
28447;SDS011;15675;52.870;-1.416;2023-06-26T06:13:27;7.90;;;1.65;;
28447;SDS011;15675;52.870;-1.416;2023-06-26T06:15:53;3.50;;;1.35;;
28447;SDS011;15675;52.870;-1.416;2023-06-26T06:18:20;7.35;;;1.38;;
28447;SDS011;15675;52.870;-1.416;2023-06-26T06:20:45;5.10;;;1.58;;
28447;SDS011;15675;52.870;-1.416;2023-06-26T06:23:11;5.30;;;2.22;;
28447;SDS011;15675;52.870;-1.416;2023-06-26T06:25:36;6.45;;;1.48;;
28447;SDS011;15675;52.870;-1.416;2023-06-26T06:28:03;4.07;;;1.35;;
28447;SDS011;15675;52.870;-1.416;2023-06-26T06:30:29;4.97;;;1.70;;
28447;SDS011;15675;52.870;-1.416;2023-06-26T06:32:55;3.97;;;1.40;;
28447;SDS011;15675;52.870;-1.416;2023-06-26T06:35:20;5.00;;;1.40;;
28447;SDS011;15675;52.870;-1.416;2023-06-26T06:37:46;4.15;;;1.10;;
28447;SDS011;15675;52.870;-1.416;2023-06-26T06:40:12;7.55;;;1.45;;
28447;SDS011;15675;52.870;-1.416;2023-06-26T06:42:37;5.90;;;1.30;;
28447;SDS011;15675;52.870;-1.416;2023-06-26T06:45:03;5.97;;;1.42;;
28447;SDS011;15675;52.870;-1.416;2023-06-26T06:47:30;5.28;;;1.45;;
28447;SDS011;15675;52.870;-1.416;2023-06-26T06:49:56;4.82;;;1.23;;
28447;SDS011;15675;52.870;-1.416;2023-06-26T06:52:22;6.63;;;1.20;;
28447;SDS011;15675;52.870;-1.416;2023-06-26T06:54:54;5.25;;;1.50;;
28447;SDS011;15675;52.870;-1.416;2023-06-26T06:57:23;5.72;;;1.35;;
28447;SDS011;15675;52.870;-1.416;2023-06-26T06:59:49;5.97;;;1.33;;
28447;SDS011;15675;52.870;-1.416;2023-06-26T07:02:18;4.65;;;1.42;;
28447;SDS011;15675;52.870;-1.416;2023-06-26T07:04:44;4.28;;;1.27;;
28447;SDS011;15675;52.870;-1.416;2023-06-26T07:07:10;5.50;;;1.38;;
28447;SDS011;15675;52.870;-1.416;2023-06-26T07:09:36;8.45;;;1.58;;
28447;SDS011;15675;52.870;-1.416;2023-06-26T07:12:01;4.68;;;1.40;;
28447;SDS011;15675;52.870;-1.416;2023-06-26T07:14:28;6.93;;;1.35;;
28447;SDS011;15675;52.870;-1.416;2023-06-26T07:16:53;6.18;;;1.10;;
28447;SDS011;15675;52.870;-1.416;2023-06-26T07:19:19;4.50;;;1.60;;
28447;SDS011;15675;52.870;-1.416;2023-06-26T07:21:44;3.60;;;1.25;;
28447;SDS011;15675;52.870;-1.416;2023-06-26T07:24:11;5.93;;;1.42;;
28447;SDS011;15675;52.870;-1.416;2023-06-26T07:26:36;4.10;;;1.23;;
28447;SDS011;15675;52.870;-1.416;2023-06-26T07:29:02;6.90;;;1.30;;
28447;SDS011;15675;52.870;-1.416;2023-06-26T07:31:28;3.40;;;1.15;;
28447;SDS011;15675;52.870;-1.416;2023-06-26T07:33:53;6.93;;;1.30;;
28447;SDS011;15675;52.870;-1.416;2023-06-26T07:36:19;5.18;;;1.20;;
28447;SDS011;15675;52.870;-1.416;2023-06-26T07:38:45;5.50;;;1.40;;
28447;SDS011;15675;52.870;-1.416;2023-06-26T07:41:11;4.70;;;1.27;;
28447;SDS011;15675;52.870;-1.416;2023-06-26T07:43:36;5.53;;;1.92;;
28447;SDS011;15675;52.870;-1.416;2023-06-26T07:46:01;7.57;;;1.23;;
28447;SDS011;15675;52.870;-1.416;2023-06-26T07:48:27;4.32;;;1.05;;
28447;SDS011;15675;52.870;-1.416;2023-06-26T07:50:53;5.07;;;1.02;;
28447;SDS011;15675;52.870;-1.416;2023-06-26T07:53:18;7.22;;;1.48;;
28447;SDS011;15675;52.870;-1.416;2023-06-26T07:55:44;5.43;;;1.20;;
28447;SDS011;15675;52.870;-1.416;2023-06-26T07:58:10;2.58;;;1.13;;
28447;SDS011;15675;52.870;-1.416;2023-06-26T08:00:36;3.50;;;1.63;;
28447;SDS011;15675;52.870;-1.416;2023-06-26T08:03:02;5.88;;;1.77;;
28447;SDS011;15675;52.870;-1.416;2023-06-26T08:05:27;5.38;;;1.38;;
28447;SDS011;15675;52.870;-1.416;2023-06-26T08:07:53;9.20;;;1.05;;
28447;SDS011;15675;52.870;-1.416;2023-06-26T08:10:18;6.90;;;1.60;;
28447;SDS011;15675;52.870;-1.416;2023-06-26T08:12:44;5.95;;;1.02;;
28447;SDS011;15675;52.870;-1.416;2023-06-26T08:15:11;5.15;;;1.20;;
28447;SDS011;15675;52.870;-1.416;2023-06-26T08:17:37;6.63;;;1.33;;
28447;SDS011;15675;52.870;-1.416;2023-06-26T08:20:03;4.40;;;1.20;;
28447;SDS011;15675;52.870;-1.416;2023-06-26T08:22:29;3.60;;;1.60;;
28447;SDS011;15675;52.870;-1.416;2023-06-26T08:24:55;7.10;;;1.58;;
28447;SDS011;15675;52.870;-1.416;2023-06-26T08:27:20;10.50;;;1.40;;
28447;SDS011;15675;52.870;-1.416;2023-06-26T08:29:47;7.43;;;1.27;;
28447;SDS011;15675;52.870;-1.416;2023-06-26T08:32:12;3.40;;;1.10;;
28447;SDS011;15675;52.870;-1.416;2023-06-26T08:34:38;5.70;;;1.48;;
28447;SDS011;15675;52.870;-1.416;2023-06-26T08:37:04;6.30;;;1.30;;
28447;SDS011;15675;52.870;-1.416;2023-06-26T08:39:29;3.83;;;1.00;;
28447;SDS011;15675;52.870;-1.416;2023-06-26T08:41:55;2.17;;;1.15;;
28447;SDS011;15675;52.870;-1.416;2023-06-26T08:44:21;5.03;;;1.13;;
28447;SDS011;15675;52.870;-1.416;2023-06-26T08:46:50;4.82;;;0.90;;
28447;SDS011;15675;52.870;-1.416;2023-06-26T08:54:43;4.18;;;0.90;;
28447;SDS011;15675;52.870;-1.416;2023-06-26T08:57:11;3.28;;;1.00;;
28447;SDS011;15675;52.870;-1.416;2023-06-26T08:59:38;4.65;;;1.00;;
28447;SDS011;15675;52.870;-1.416;2023-06-26T09:02:04;4.47;;;0.90;;
28447;SDS011;15675;52.870;-1.416;2023-06-26T09:04:30;6.70;;;1.02;;
28447;SDS011;15675;52.870;-1.416;2023-06-26T09:06:55;5.47;;;0.90;;
28447;SDS011;15675;52.870;-1.416;2023-06-26T09:09:21;4.53;;;0.85;;
28447;SDS011;15675;52.870;-1.416;2023-06-26T09:11:46;4.10;;;0.90;;
28447;SDS011;15675;52.870;-1.416;2023-06-26T09:14:12;4.95;;;1.13;;
28447;SDS011;15675;52.870;-1.416;2023-06-26T09:16:39;2.47;;;0.75;;
28447;SDS011;15675;52.870;-1.416;2023-06-26T09:19:09;6.50;;;0.85;;
28447;SDS011;15675;52.870;-1.416;2023-06-26T09:21:41;3.60;;;0.63;;
28447;SDS011;15675;52.870;-1.416;2023-06-26T09:24:08;3.40;;;0.70;;
28447;SDS011;15675;52.870;-1.416;2023-06-26T09:26:35;5.18;;;1.17;;
28447;SDS011;15675;52.870;-1.416;2023-06-26T09:29:02;4.93;;;1.10;;
28447;SDS011;15675;52.870;-1.416;2023-06-26T09:31:28;3.75;;;0.88;;
28447;SDS011;15675;52.870;-1.416;2023-06-26T09:33:58;4.25;;;0.98;;
28447;SDS011;15675;52.870;-1.416;2023-06-26T09:36:28;5.60;;;1.27;;
28447;SDS011;15675;52.870;-1.416;2023-06-26T09:39:01;2.45;;;0.68;;
28447;SDS011;15675;52.870;-1.416;2023-06-26T09:41:30;2.67;;;0.80;;
28447;SDS011;15675;52.870;-1.416;2023-06-26T09:43:57;5.07;;;0.80;;
28447;SDS011;15675;52.870;-1.416;2023-06-26T09:46:26;3.35;;;0.90;;
28447;SDS011;15675;52.870;-1.416;2023-06-26T09:48:57;3.72;;;1.05;;
28447;SDS011;15675;52.870;-1.416;2023-06-26T09:51:26;4.53;;;0.98;;
28447;SDS011;15675;52.870;-1.416;2023-06-26T09:53:55;5.38;;;1.00;;
28447;SDS011;15675;52.870;-1.416;2023-06-26T09:56:21;3.85;;;1.08;;
28447;SDS011;15675;52.870;-1.416;2023-06-26T09:58:47;12.82;;;1.38;;
28447;SDS011;15675;52.870;-1.416;2023-06-26T10:01:12;5.38;;;1.13;;
28447;SDS011;15675;52.870;-1.416;2023-06-26T10:03:38;4.82;;;0.85;;
28447;SDS011;15675;52.870;-1.416;2023-06-26T10:06:04;8.32;;;1.15;;
28447;SDS011;15675;52.870;-1.416;2023-06-26T10:08:30;5.85;;;0.82;;
28447;SDS011;15675;52.870;-1.416;2023-06-26T10:10:57;2.75;;;0.90;;
28447;SDS011;15675;52.870;-1.416;2023-06-26T10:13:25;1.85;;;0.70;;
28447;SDS011;15675;52.870;-1.416;2023-06-26T10:16:03;5.55;;;1.10;;
28447;SDS011;15675;52.870;-1.416;2023-06-26T10:18:29;2.88;;;0.77;;
28447;SDS011;15675;52.870;-1.416;2023-06-26T10:20:57;7.03;;;1.33;;
28447;SDS011;15675;52.870;-1.416;2023-06-26T10:23:25;3.60;;;0.88;;
28447;SDS011;15675;52.870;-1.416;2023-06-26T10:25:52;4.70;;;0.93;;
28447;SDS011;15675;52.870;-1.416;2023-06-26T10:28:23;4.53;;;1.20;;
28447;SDS011;15675;52.870;-1.416;2023-06-26T10:30:51;5.28;;;1.02;;
28447;SDS011;15675;52.870;-1.416;2023-06-26T10:33:19;6.18;;;0.90;;
28447;SDS011;15675;52.870;-1.416;2023-06-26T10:35:45;4.32;;;1.10;;
28447;SDS011;15675;52.870;-1.416;2023-06-26T10:38:11;3.50;;;0.70;;
28447;SDS011;15675;52.870;-1.416;2023-06-26T10:40:46;3.15;;;0.75;;
28447;SDS011;15675;52.870;-1.416;2023-06-26T10:43:14;3.33;;;0.80;;
28447;SDS011;15675;52.870;-1.416;2023-06-26T10:45:46;3.80;;;0.90;;
28447;SDS011;15675;52.870;-1.416;2023-06-26T10:48:19;4.30;;;0.90;;
28447;SDS011;15675;52.870;-1.416;2023-06-26T10:50:49;5.88;;;1.30;;
28447;SDS011;15675;52.870;-1.416;2023-06-26T10:56:01;3.90;;;0.95;;
28447;SDS011;15675;52.870;-1.416;2023-06-26T11:03:36;1.88;;;0.70;;
28447;SDS011;15675;52.870;-1.416;2023-06-26T11:06:12;11.77;;;1.15;;
28447;SDS011;15675;52.870;-1.416;2023-06-26T11:08:49;6.57;;;0.90;;
28447;SDS011;15675;52.870;-1.416;2023-06-26T11:11:16;3.60;;;0.60;;
28447;SDS011;15675;52.870;-1.416;2023-06-26T11:13:43;7.10;;;1.33;;
28447;SDS011;15675;52.870;-1.416;2023-06-26T11:16:11;5.53;;;0.93;;
28447;SDS011;15675;52.870;-1.416;2023-06-26T11:18:37;4.93;;;0.93;;
28447;SDS011;15675;52.870;-1.416;2023-06-26T11:21:07;2.97;;;1.00;;
28447;SDS011;15675;52.870;-1.416;2023-06-26T11:23:34;2.13;;;0.60;;
28447;SDS011;15675;52.870;-1.416;2023-06-26T11:26:14;4.93;;;0.80;;
28447;SDS011;15675;52.870;-1.416;2023-06-26T11:28:45;3.88;;;0.95;;
28447;SDS011;15675;52.870;-1.416;2023-06-26T11:31:27;5.30;;;0.90;;
28447;SDS011;15675;52.870;-1.416;2023-06-26T11:33:55;4.03;;;1.40;;
28447;SDS011;15675;52.870;-1.416;2023-06-26T11:36:24;7.55;;;1.30;;
28447;SDS011;15675;52.870;-1.416;2023-06-26T11:41:25;2.97;;;0.77;;
28447;SDS011;15675;52.870;-1.416;2023-06-26T11:43:52;3.45;;;0.98;;
28447;SDS011;15675;52.870;-1.416;2023-06-26T11:46:18;5.35;;;1.00;;
28447;SDS011;15675;52.870;-1.416;2023-06-26T11:48:45;2.78;;;0.88;;
28447;SDS011;15675;52.870;-1.416;2023-06-26T11:51:12;4.28;;;0.80;;
28447;SDS011;15675;52.870;-1.416;2023-06-26T11:53:41;4.30;;;1.50;;
28447;SDS011;15675;52.870;-1.416;2023-06-26T11:56:08;5.43;;;0.80;;
28447;SDS011;15675;52.870;-1.416;2023-06-26T12:01:27;6.05;;;1.27;;
28447;SDS011;15675;52.870;-1.416;2023-06-26T12:03:58;5.50;;;1.10;;
28447;SDS011;15675;52.870;-1.416;2023-06-26T12:06:25;4.85;;;0.90;;
28447;SDS011;15675;52.870;-1.416;2023-06-26T12:08:51;7.07;;;0.80;;
28447;SDS011;15675;52.870;-1.416;2023-06-26T12:11:17;2.70;;;0.80;;
28447;SDS011;15675;52.870;-1.416;2023-06-26T12:13:43;2.47;;;0.85;;
28447;SDS011;15675;52.870;-1.416;2023-06-26T12:16:10;2.00;;;0.73;;
28447;SDS011;15675;52.870;-1.416;2023-06-26T12:18:35;4.43;;;1.02;;
28447;SDS011;15675;52.870;-1.416;2023-06-26T12:21:01;2.58;;;0.63;;
28447;SDS011;15675;52.870;-1.416;2023-06-26T12:23:33;3.35;;;0.88;;
28447;SDS011;15675;52.870;-1.416;2023-06-26T12:26:19;5.85;;;0.80;;
28447;SDS011;15675;52.870;-1.416;2023-06-26T12:28:46;6.30;;;1.00;;
28447;SDS011;15675;52.870;-1.416;2023-06-26T12:31:15;2.85;;;1.00;;
28447;SDS011;15675;52.870;-1.416;2023-06-26T12:33:45;4.68;;;1.02;;
28447;SDS011;15675;52.870;-1.416;2023-06-26T12:36:13;5.63;;;1.10;;
28447;SDS011;15675;52.870;-1.416;2023-06-26T12:38:44;13.68;;;1.45;;
28447;SDS011;15675;52.870;-1.416;2023-06-26T12:41:12;3.95;;;1.00;;
28447;SDS011;15675;52.870;-1.416;2023-06-26T12:43:39;3.05;;;0.95;;
28447;SDS011;15675;52.870;-1.416;2023-06-26T12:46:05;3.53;;;0.82;;
28447;SDS011;15675;52.870;-1.416;2023-06-26T12:48:37;6.82;;;1.25;;
28447;SDS011;15675;52.870;-1.416;2023-06-26T12:51:10;3.58;;;1.10;;
28447;SDS011;15675;52.870;-1.416;2023-06-26T12:53:36;3.47;;;1.05;;
28447;SDS011;15675;52.870;-1.416;2023-06-26T12:56:05;2.25;;;0.73;;
28447;SDS011;15675;52.870;-1.416;2023-06-26T12:58:31;4.38;;;1.10;;
28447;SDS011;15675;52.870;-1.416;2023-06-26T13:00:57;1.83;;;0.52;;
28447;SDS011;15675;52.870;-1.416;2023-06-26T13:03:23;3.65;;;0.68;;
28447;SDS011;15675;52.870;-1.416;2023-06-26T13:05:48;3.90;;;1.10;;
28447;SDS011;15675;52.870;-1.416;2023-06-26T13:08:14;5.90;;;0.90;;
28447;SDS011;15675;52.870;-1.416;2023-06-26T13:10:42;3.15;;;0.57;;
28447;SDS011;15675;52.870;-1.416;2023-06-26T13:13:09;3.55;;;0.70;;
28447;SDS011;15675;52.870;-1.416;2023-06-26T13:15:35;2.42;;;0.77;;
28447;SDS011;15675;52.870;-1.416;2023-06-26T13:18:01;2.75;;;0.68;;
28447;SDS011;15675;52.870;-1.416;2023-06-26T13:20:26;5.43;;;0.63;;
28447;SDS011;15675;52.870;-1.416;2023-06-26T13:22:53;1.63;;;0.60;;
28447;SDS011;15675;52.870;-1.416;2023-06-26T13:25:19;2.28;;;0.60;;
28447;SDS011;15675;52.870;-1.416;2023-06-26T13:27:45;5.15;;;0.90;;
28447;SDS011;15675;52.870;-1.416;2023-06-26T13:30:11;3.92;;;0.80;;
28447;SDS011;15675;52.870;-1.416;2023-06-26T13:32:37;1.98;;;0.45;;
28447;SDS011;15675;52.870;-1.416;2023-06-26T13:35:03;2.40;;;0.95;;
28447;SDS011;15675;52.870;-1.416;2023-06-26T13:37:29;3.40;;;0.68;;
28447;SDS011;15675;52.870;-1.416;2023-06-26T13:39:55;5.72;;;0.60;;
28447;SDS011;15675;52.870;-1.416;2023-06-26T13:42:20;3.53;;;0.52;;
28447;SDS011;15675;52.870;-1.416;2023-06-26T13:44:46;1.88;;;0.57;;
28447;SDS011;15675;52.870;-1.416;2023-06-26T13:47:12;8.10;;;0.70;;
28447;SDS011;15675;52.870;-1.416;2023-06-26T13:49:40;3.45;;;0.60;;
28447;SDS011;15675;52.870;-1.416;2023-06-26T13:52:05;1.20;;;0.45;;
28447;SDS011;15675;52.870;-1.416;2023-06-26T13:54:36;2.25;;;0.73;;
28447;SDS011;15675;52.870;-1.416;2023-06-26T13:57:04;4.35;;;0.70;;
28447;SDS011;15675;52.870;-1.416;2023-06-26T13:59:31;2.53;;;0.60;;
28447;SDS011;15675;52.870;-1.416;2023-06-26T14:01:57;3.30;;;0.70;;
28447;SDS011;15675;52.870;-1.416;2023-06-26T14:04:24;3.08;;;0.60;;
28447;SDS011;15675;52.870;-1.416;2023-06-26T14:06:49;2.75;;;0.50;;
28447;SDS011;15675;52.870;-1.416;2023-06-26T14:09:15;3.80;;;0.70;;
28447;SDS011;15675;52.870;-1.416;2023-06-26T14:11:41;3.10;;;0.60;;
28447;SDS011;15675;52.870;-1.416;2023-06-26T14:14:06;4.22;;;0.70;;
28447;SDS011;15675;52.870;-1.416;2023-06-26T14:16:32;4.55;;;0.70;;
28447;SDS011;15675;52.870;-1.416;2023-06-26T14:18:58;3.72;;;0.55;;
28447;SDS011;15675;52.870;-1.416;2023-06-26T14:21:23;1.42;;;0.50;;
28447;SDS011;15675;52.870;-1.416;2023-06-26T14:23:49;2.33;;;0.55;;
28447;SDS011;15675;52.870;-1.416;2023-06-26T14:26:14;2.42;;;0.47;;
28447;SDS011;15675;52.870;-1.416;2023-06-26T14:28:40;3.05;;;0.85;;
28447;SDS011;15675;52.870;-1.416;2023-06-26T14:31:06;1.40;;;0.50;;
28447;SDS011;15675;52.870;-1.416;2023-06-26T14:33:31;3.70;;;0.80;;
28447;SDS011;15675;52.870;-1.416;2023-06-26T14:35:57;7.20;;;0.93;;
28447;SDS011;15675;52.870;-1.416;2023-06-26T14:38:22;3.78;;;1.00;;
28447;SDS011;15675;52.870;-1.416;2023-06-26T14:40:47;5.30;;;1.23;;
28447;SDS011;15675;52.870;-1.416;2023-06-26T14:43:13;2.83;;;0.80;;
28447;SDS011;15675;52.870;-1.416;2023-06-26T14:45:38;5.22;;;0.90;;
28447;SDS011;15675;52.870;-1.416;2023-06-26T14:48:04;3.25;;;0.88;;
28447;SDS011;15675;52.870;-1.416;2023-06-26T14:50:30;3.30;;;0.70;;
28447;SDS011;15675;52.870;-1.416;2023-06-26T14:52:55;2.10;;;0.93;;